Time;durP1;ratioP1;P1;durP2;ratioP2;P2;SDS_P1;SDS_P2;PMS_P1;PMS_P2;Temp;Humidity;BMP_temperature;BMP_pressure;BME280_temperature;BME280_humidity;BME280_pressure;Samples;Min_cycle;Max_cycle;Signal;HPM_P1;HPM_P2
2023/03/26 00:00:26;;;;;;;2.90;0.80;;;9.30;79.00;;;;;;5006753;28;20037;-69
2023/03/26 00:02:59;;;;;;;3.60;0.80;;;9.30;79.10;;;;;;5011278;28;20085;-69
2023/03/26 00:05:32;;;;;;;2.97;0.65;;;9.20;79.10;;;;;;5016873;28;20059;-62
2023/03/26 00:08:19;;;;;;;3.05;0.70;;;9.20;79.10;;;;;;5009026;28;20042;-61
2023/03/26 00:10:52;;;;;;;2.90;1.13;;;9.20;79.00;;;;;;5007384;28;20053;-61
2023/03/26 00:13:25;;;;;;;5.40;1.13;;;9.30;79.00;;;;;;5011062;28;20429;-62
2023/03/26 00:16:00;;;;;;;3.08;0.60;;;9.20;78.90;;;;;;5006078;28;20208;-62
2023/03/26 00:18:33;;;;;;;4.20;0.80;;;9.30;78.80;;;;;;5010238;28;20049;-62
2023/03/26 00:21:07;;;;;;;3.80;0.60;;;9.20;79.20;;;;;;5009885;28;20485;-62
2023/03/26 00:23:41;;;;;;;7.18;1.30;;;9.20;79.30;;;;;;5013635;28;20080;-62
2023/03/26 00:26:16;;;;;;;3.53;0.90;;;9.10;79.40;;;;;;5004480;28;20041;-63
2023/03/26 00:28:50;;;;;;;2.45;1.05;;;9.20;79.30;;;;;;5010015;28;20046;-62
2023/03/26 00:31:25;;;;;;;4.70;0.93;;;9.20;79.30;;;;;;5010824;28;20105;-61
2023/03/26 00:34:01;;;;;;;5.70;0.80;;;9.10;79.40;;;;;;5011645;28;20051;-62
2023/03/26 00:36:36;;;;;;;3.67;1.23;;;9.10;79.50;;;;;;5030151;28;20045;-60
2023/03/26 00:39:09;;;;;;;3.45;1.02;;;9.10;79.50;;;;;;5011993;28;20157;-61
2023/03/26 00:41:43;;;;;;;6.07;1.13;;;9.10;79.60;;;;;;5034251;28;20431;-70
2023/03/26 00:44:17;;;;;;;5.25;1.20;;;9.10;79.60;;;;;;5028441;28;20111;-70
2023/03/26 00:46:52;;;;;;;6.40;2.03;;;9.10;79.40;;;;;;5027578;28;20042;-69
2023/03/26 00:49:26;;;;;;;5.93;1.65;;;9.10;79.40;;;;;;5014251;28;20046;-68
2023/03/26 00:52:01;;;;;;;4.43;1.45;;;9.10;79.60;;;;;;5009371;28;20052;-70
2023/03/26 00:54:28;;;;;;;4.85;1.10;;;9.10;79.70;;;;;;5009929;28;20049;-70
2023/03/26 00:57:01;;;;;;;2.88;0.93;;;9.10;79.60;;;;;;5013695;28;20132;-70
2023/03/26 00:59:34;;;;;;;2.88;0.80;;;9.10;79.70;;;;;;5008793;28;20068;-71
2023/03/26 01:02:15;;;;;;;3.60;0.80;;;9.10;79.60;;;;;;4993499;28;20069;-69
2023/03/26 01:04:54;;;;;;;5.18;1.00;;;9.10;79.60;;;;;;5009888;28;20148;-70
2023/03/26 01:07:36;;;;;;;6.07;1.42;;;9.10;79.80;;;;;;5011744;28;20041;-62
2023/03/26 01:10:13;;;;;;;4.63;1.40;;;9.10;79.70;;;;;;5009710;28;20444;-63
2023/03/26 01:12:46;;;;;;;3.58;0.90;;;9.00;79.70;;;;;;5014238;28;20490;-68
2023/03/26 01:15:13;;;;;;;4.85;0.90;;;9.10;79.60;;;;;;5006056;28;20046;-69
2023/03/26 01:17:50;;;;;;;6.28;0.93;;;9.10;79.60;;;;;;4996732;28;20091;-63
2023/03/26 01:20:29;;;;;;;3.80;1.05;;;9.10;79.40;;;;;;5012940;28;20045;-69
2023/03/26 01:23:06;;;;;;;4.65;0.90;;;9.10;79.30;;;;;;5010903;28;20157;-70
2023/03/26 01:25:48;;;;;;;4.80;0.95;;;9.10;79.40;;;;;;5014350;28;20048;-68
2023/03/26 01:28:25;;;;;;;3.97;0.77;;;9.10;79.40;;;;;;4995837;28;20046;-69
2023/03/26 01:31:08;;;;;;;6.95;1.15;;;9.00;79.40;;;;;;5009949;28;20049;-70
2023/03/26 01:33:47;;;;;;;5.40;1.05;;;9.10;79.40;;;;;;5013674;28;20052;-71
2023/03/26 01:36:32;;;;;;;5.57;1.10;;;9.00;79.50;;;;;;5011610;28;20046;-69
2023/03/26 01:39:11;;;;;;;4.22;0.82;;;9.00;79.60;;;;;;5008696;28;20054;-67
2023/03/26 01:41:50;;;;;;;3.88;0.90;;;9.00;79.60;;;;;;5010656;28;20504;-70
2023/03/26 01:44:29;;;;;;;2.83;0.70;;;8.90;79.80;;;;;;5013807;28;20050;-69
2023/03/26 01:47:04;;;;;;;3.83;0.98;;;8.90;79.80;;;;;;5005800;28;20080;-70
2023/03/26 01:49:37;;;;;;;3.33;1.15;;;8.80;80.00;;;;;;4986060;28;20425;-70
2023/03/26 01:52:14;;;;;;;4.57;1.05;;;8.80;80.00;;;;;;5012480;28;20042;-69
2023/03/26 01:54:48;;;;;;;4.88;0.85;;;8.80;79.90;;;;;;5003869;28;20085;-69
2023/03/26 01:57:36;;;;;;;2.70;0.85;;;8.80;79.90;;;;;;5033391;28;20488;-62
2023/03/26 02:00:26;;;;;;;5.78;1.30;;;8.70;80.10;;;;;;5006535;28;20045;-61
2023/03/26 02:03:29;;;;;;;5.22;1.27;;;8.80;80.00;;;;;;5012038;28;20177;-61
2023/03/26 02:06:16;;;;;;;7.93;1.20;;;8.70;80.10;;;;;;5011361;28;20049;-61
2023/03/26 02:09:00;;;;;;;6.03;0.85;;;8.80;79.90;;;;;;5006165;28;20041;-60
2023/03/26 02:11:35;;;;;;;3.05;1.02;;;8.70;80.00;;;;;;5016149;28;20076;-70
2023/03/26 02:14:10;;;;;;;4.82;0.52;;;8.70;80.20;;;;;;5037033;28;20138;-71
2023/03/26 02:16:45;;;;;;;6.28;1.05;;;8.60;80.20;;;;;;5015478;28;21004;-71
2023/03/26 02:19:20;;;;;;;6.20;1.40;;;8.60;80.30;;;;;;5011767;28;20053;-71
2023/03/26 02:21:58;;;;;;;3.85;0.85;;;8.60;80.40;;;;;;5032672;28;20045;-71
2023/03/26 02:24:32;;;;;;;4.47;0.80;;;8.50;80.40;;;;;;5017903;28;20045;-69
2023/03/26 02:27:06;;;;;;;6.65;1.40;;;8.50;80.60;;;;;;5032821;28;20084;-69
2023/03/26 02:29:42;;;;;;;4.07;1.08;;;8.50;80.60;;;;;;5015372;28;20120;-69
2023/03/26 02:32:18;;;;;;;6.55;1.13;;;8.50;80.40;;;;;;5034311;28;20040;-62
2023/03/26 02:34:51;;;;;;;7.60;1.30;;;8.60;80.40;;;;;;5016364;28;20455;-61
2023/03/26 02:37:24;;;;;;;5.45;1.00;;;8.40;80.50;;;;;;5033965;28;20049;-69
2023/03/26 02:40:10;;;;;;;5.63;1.35;;;8.50;80.50;;;;;;5013977;28;20061;-70
2023/03/26 02:42:46;;;;;;;7.50;1.33;;;8.50;80.40;;;;;;5025805;28;20371;-70
2023/03/26 02:45:21;;;;;;;6.90;1.40;;;8.40;80.60;;;;;;5033998;28;20119;-70
2023/03/26 02:48:06;;;;;;;4.78;1.30;;;8.50;80.50;;;;;;5034763;28;20431;-70
2023/03/26 02:50:39;;;;;;;5.28;0.88;;;8.40;80.60;;;;;;5033163;28;20054;-71
2023/03/26 02:53:36;;;;;;;4.88;1.30;;;8.30;80.70;;;;;;5019866;28;20495;-70
2023/03/26 02:56:33;;;;;;;6.25;0.88;;;8.30;80.80;;;;;;5024853;28;20044;-70
2023/03/26 02:59:36;;;;;;;6.57;1.45;;;8.30;80.90;;;;;;4972813;28;20053;-69
2023/03/26 03:02:29;;;;;;;5.63;1.25;;;8.30;80.90;;;;;;5029669;28;20516;-62
2023/03/26 03:05:18;;;;;;;5.43;1.30;;;8.30;81.00;;;;;;5015866;28;20064;-61
2023/03/26 03:08:02;;;;;;;4.07;1.17;;;8.30;80.90;;;;;;5012784;28;20054;-62
2023/03/26 03:10:45;;;;;;;3.80;1.08;;;8.20;81.00;;;;;;5017433;28;20053;-63
2023/03/26 03:13:30;;;;;;;5.03;1.05;;;8.30;81.00;;;;;;4995077;28;20108;-62
2023/03/26 03:16:04;;;;;;;4.40;0.90;;;8.20;81.00;;;;;;5014392;28;20049;-61
2023/03/26 03:18:39;;;;;;;5.10;1.20;;;8.20;81.10;;;;;;5035539;28;20052;-62
2023/03/26 03:21:12;;;;;;;5.28;0.90;;;8.20;81.10;;;;;;4996842;28;20571;-61
2023/03/26 03:23:46;;;;;;;6.32;1.30;;;8.20;81.00;;;;;;5028138;28;20054;-63
2023/03/26 03:26:22;;;;;;;6.40;1.17;;;8.20;80.90;;;;;;5031562;28;20064;-71
2023/03/26 03:28:56;;;;;;;7.05;1.02;;;8.10;81.00;;;;;;5024314;28;20125;-70
2023/03/26 03:31:30;;;;;;;4.65;1.02;;;8.20;81.10;;;;;;5014130;28;20053;-68
2023/03/26 03:34:09;;;;;;;5.25;1.48;;;8.20;81.10;;;;;;5016438;28;20562;-68
2023/03/26 03:36:48;;;;;;;;;;;8.10;81.20;;;;;;5034198;28;20064;-62
2023/03/26 03:39:39;;;;;;;4.38;0.88;;;8.10;81.30;;;;;;5031899;28;19956;-62
2023/03/26 03:42:17;;;;;;;4.53;1.30;;;8.10;81.30;;;;;;5013181;28;20048;-68
2023/03/26 03:44:54;;;;;;;6.15;1.05;;;8.10;81.30;;;;;;5025521;28;20049;-68
2023/03/26 03:47:54;;;;;;;;;;;8.10;81.30;;;;;;5030445;28;20068;-68
2023/03/26 03:50:37;;;;;;;6.00;0.80;;;8.00;81.50;;;;;;5015749;28;19965;-69
2023/03/26 03:53:29;;;;;;;4.07;1.10;;;8.10;81.30;;;;;;5014553;28;20068;-70
2023/03/26 03:56:08;;;;;;;6.05;1.30;;;8.00;81.40;;;;;;4995364;28;20445;-70
2023/03/26 03:59:00;;;;;;;4.18;0.90;;;8.00;81.50;;;;;;5013629;28;20554;-70
2023/03/26 04:01:35;;;;;;;6.28;1.63;;;8.00;81.50;;;;;;5014174;28;20144;-62
2023/03/26 04:04:14;;;;;;;4.57;1.20;;;7.90;81.50;;;;;;5016284;28;20085;-62
2023/03/26 04:07:08;;;;;;;4.13;1.00;;;8.00;81.40;;;;;;5012874;28;20459;-68
2023/03/26 04:10:09;;;;;;;4.88;1.38;;;8.00;81.30;;;;;;4972706;28;20045;-68
2023/03/26 04:13:01;;;;;;;6.65;1.48;;;8.00;81.20;;;;;;5011563;28;20201;-61
2023/03/26 04:16:09;;;;;;;2.60;0.80;;;8.00;81.20;;;;;;5007881;28;20086;-63
2023/03/26 04:18:44;;;;;;;3.70;0.85;;;7.90;81.20;;;;;;5016343;28;20589;-67
2023/03/26 04:21:18;;;;;;;6.35;0.95;;;7.90;81.40;;;;;;5033883;28;20076;-70
2023/03/26 04:23:53;;;;;;;5.40;1.00;;;7.80;81.40;;;;;;5016571;28;20484;-71
2023/03/26 04:26:46;;;;;;;7.90;1.48;;;7.80;81.40;;;;;;5035265;28;20049;-62
2023/03/26 04:29:26;;;;;;;5.15;1.15;;;7.70;81.60;;;;;;5007576;28;20053;-61
2023/03/26 04:32:05;;;;;;;5.70;1.33;;;7.70;81.60;;;;;;5012073;28;20052;-69
2023/03/26 04:34:39;;;;;;;4.55;0.82;;;7.70;81.70;;;;;;5015229;28;20049;-69
2023/03/26 04:37:20;;;;;;;6.25;1.27;;;7.70;81.90;;;;;;5017003;28;20077;-71
2023/03/26 04:40:08;;;;;;;6.13;1.52;;;7.70;82.00;;;;;;5009662;28;20049;-70
2023/03/26 04:43:02;;;;;;;7.38;1.50;;;7.70;82.10;;;;;;5006267;28;20386;-70
2023/03/26 04:46:03;;;;;;;4.88;1.20;;;7.70;82.20;;;;;;5014897;28;20057;-61
2023/03/26 04:48:45;;;;;;;4.35;1.10;;;7.70;82.30;;;;;;5029333;28;20067;-63
2023/03/26 04:51:20;;;;;;;6.70;1.63;;;7.70;82.20;;;;;;5028799;28;20404;-62
2023/03/26 04:53:57;;;;;;;5.28;1.30;;;7.70;82.20;;;;;;5009498;28;20133;-62
2023/03/26 04:56:42;;;;;;;5.00;1.10;;;7.60;82.30;;;;;;5006197;28;20050;-66
2023/03/26 04:59:24;;;;;;;6.85;1.20;;;7.60;82.40;;;;;;5012102;28;20365;-67
2023/03/26 05:01:59;;;;;;;6.95;2.35;;;7.50;82.40;;;;;;5012074;28;20138;-69
2023/03/26 05:04:39;;;;;;;8.55;2.85;;;7.60;82.40;;;;;;5020479;28;20370;-69
2023/03/26 05:07:18;;;;;;;6.45;2.55;;;7.50;82.60;;;;;;4997478;28;20053;-71
2023/03/26 05:10:03;;;;;;;5.40;1.55;;;7.50;82.70;;;;;;4994016;28;20078;-74
2023/03/26 05:13:04;;;;;;;5.68;1.65;;;7.60;82.70;;;;;;5004160;28;20056;-71
2023/03/26 05:15:40;;;;;;;8.00;1.25;;;7.60;82.70;;;;;;5013086;28;20108;-70
2023/03/26 05:18:31;;;;;;;5.78;1.63;;;7.60;82.80;;;;;;5014838;28;20045;-70
2023/03/26 05:21:05;;;;;;;5.93;1.00;;;7.60;82.70;;;;;;5012509;28;20049;-70
2023/03/26 05:23:40;;;;;;;9.48;1.25;;;7.60;82.80;;;;;;5012658;28;20037;-70
2023/03/26 05:26:18;;;;;;;5.57;1.23;;;7.50;82.70;;;;;;5012404;28;20049;-71
2023/03/26 05:28:53;;;;;;;6.70;1.13;;;7.50;82.80;;;;;;5024350;28;20100;-70
2023/03/26 05:31:32;;;;;;;5.75;1.00;;;7.50;82.90;;;;;;4993746;28;20080;-70
2023/03/26 05:34:06;;;;;;;4.55;1.00;;;7.50;82.90;;;;;;5013813;28;20044;-70
2023/03/26 05:36:39;;;;;;;4.05;1.00;;;7.50;83.00;;;;;;4990157;28;20048;-62
2023/03/26 05:39:40;;;;;;;4.53;0.80;;;7.50;83.00;;;;;;5015249;28;20506;-62
2023/03/26 05:42:35;;;;;;;5.50;0.90;;;7.60;83.10;;;;;;5012230;28;20055;-69
2023/03/26 05:45:30;;;;;;;4.68;1.33;;;7.50;83.20;;;;;;5030779;28;20045;-70
2023/03/26 05:48:25;;;;;;;5.10;0.85;;;7.60;83.50;;;;;;5024499;28;20053;-71
2023/03/26 05:50:59;;;;;;;7.18;1.33;;;7.60;83.50;;;;;;5009140;28;20049;-70
2023/03/26 05:53:33;;;;;;;5.13;1.10;;;7.50;83.50;;;;;;5013860;28;20128;-71
2023/03/26 05:56:07;;;;;;;7.05;1.40;;;7.60;83.50;;;;;;5028239;28;20052;-70
2023/03/26 05:58:47;;;;;;;6.93;1.33;;;7.60;83.50;;;;;;5031397;28;20049;-71
2023/03/26 06:01:43;;;;;;;5.65;1.10;;;7.70;83.30;;;;;;5030769;28;20048;-71
2023/03/26 06:04:52;;;;;;;3.10;1.00;;;7.70;83.10;;;;;;5002528;28;20087;-69
2023/03/26 06:07:34;;;;;;;3.40;1.00;;;7.70;83.00;;;;;;4998592;28;20049;-62
2023/03/26 06:10:20;;;;;;;6.20;1.27;;;7.70;83.20;;;;;;5000726;28;20050;-61
2023/03/26 06:12:54;;;;;;;7.05;1.67;;;7.70;83.20;;;;;;5016854;28;20088;-62
2023/03/26 06:15:28;;;;;;;9.20;2.65;;;7.70;83.00;;;;;;5012649;28;20141;-61
2023/03/26 06:18:06;;;;;;;9.23;4.05;;;7.70;83.10;;;;;;5010024;28;20061;-62
2023/03/26 06:20:57;;;;;;;13.38;5.90;;;7.70;83.10;;;;;;5026347;28;20120;-63
2023/03/26 06:23:47;;;;;;;11.05;3.42;;;7.70;83.10;;;;;;5005712;28;20053;-62
2023/03/26 06:26:43;;;;;;;6.55;2.97;;;7.70;83.20;;;;;;5030971;28;20125;-68
2023/03/26 06:29:30;;;;;;;6.15;1.88;;;7.70;83.30;;;;;;5024670;28;20128;-68
2023/03/26 06:32:27;;;;;;;4.60;1.48;;;7.80;83.40;;;;;;5022536;28;20076;-67
2023/03/26 06:35:16;;;;;;;7.35;2.72;;;7.80;83.50;;;;;;5004201;28;20124;-68
2023/03/26 06:37:49;;;;;;;8.48;2.92;;;7.80;83.60;;;;;;5010219;28;20071;-67
2023/03/26 06:40:22;;;;;;;8.10;3.03;;;7.80;83.40;;;;;;5017746;28;20033;-67
2023/03/26 06:43:08;;;;;;;5.90;2.15;;;7.90;83.00;;;;;;5013257;28;20046;-68
2023/03/26 06:46:20;;;;;;;4.57;1.92;;;7.90;82.90;;;;;;4992267;28;20072;-68
2023/03/26 06:49:23;;;;;;;5.07;1.60;;;7.90;83.30;;;;;;4945902;28;20419;-68
2023/03/26 06:52:34;;;;;;;5.30;1.60;;;8.00;83.40;;;;;;4932861;28;20510;-68
2023/03/26 06:55:24;;;;;;;5.63;1.95;;;8.00;83.20;;;;;;5010304;28;20042;-68
2023/03/26 06:58:11;;;;;;;5.82;1.65;;;8.00;83.20;;;;;;5034371;28;20104;-67
2023/03/26 07:01:04;;;;;;;7.47;1.85;;;8.00;83.20;;;;;;5035251;28;20369;-68
2023/03/26 07:03:57;;;;;;;11.27;2.67;;;8.10;83.20;;;;;;5032671;28;20186;-69
2023/03/26 07:06:49;;;;;;;9.85;3.28;;;8.00;83.40;;;;;;5034326;28;20443;-68
2023/03/26 07:09:50;;;;;;;9.73;2.92;;;8.10;83.70;;;;;;4995591;28;20061;-69
2023/03/26 07:12:42;;;;;;;8.65;2.63;;;8.10;83.50;;;;;;5016260;28;20048;-61
2023/03/26 07:15:24;;;;;;;6.53;2.55;;;8.10;83.40;;;;;;5015286;28;20089;-61
2023/03/26 07:18:17;;;;;;;5.22;1.90;;;8.20;83.20;;;;;;4999326;28;20132;-61
2023/03/26 07:20:53;;;;;;;6.03;1.83;;;8.30;83.20;;;;;;4986020;28;20485;-62
2023/03/26 07:23:31;;;;;;;9.13;2.22;;;8.30;83.30;;;;;;4988353;28;20126;-62
2023/03/26 07:26:51;;;;;;;8.25;1.90;;;8.30;83.30;;;;;;4979639;28;20501;-70
2023/03/26 07:29:35;;;;;;;8.27;2.13;;;8.30;83.50;;;;;;5003732;28;20895;-70
2023/03/26 07:32:35;;;;;;;6.50;1.55;;;8.40;82.80;;;;;;5005929;28;20392;-69
2023/03/26 07:35:40;;;;;;;11.38;2.30;;;8.40;82.70;;;;;;5001838;28;20188;-62
2023/03/26 07:38:37;;;;;;;8.23;2.85;;;8.40;82.50;;;;;;4995309;28;20062;-62
2023/03/26 07:41:37;;;;;;;8.48;2.13;;;8.50;83.10;;;;;;5016924;28;20052;-61
2023/03/26 07:44:44;;;;;;;6.33;1.90;;;8.60;83.10;;;;;;4995684;28;20119;-61
2023/03/26 07:47:24;;;;;;;5.78;1.98;;;8.60;83.00;;;;;;4995066;28;20078;-61
2023/03/26 07:50:21;;;;;;;7.40;2.15;;;8.60;82.90;;;;;;4992657;28;20052;-62
2023/03/26 07:53:10;;;;;;;5.25;1.60;;;8.70;83.00;;;;;;4978960;28;20049;-61
2023/03/26 07:56:05;;;;;;;6.82;2.15;;;8.70;83.10;;;;;;5002981;28;20140;-63
2023/03/26 07:59:11;;;;;;;6.50;1.73;;;8.70;82.70;;;;;;5012167;28;20578;-61
2023/03/26 08:02:25;;;;;;;4.88;1.60;;;8.70;83.00;;;;;;4989182;28;20049;-63
2023/03/26 08:05:18;;;;;;;5.22;1.80;;;8.80;82.90;;;;;;5012481;28;20492;-61
2023/03/26 08:08:18;;;;;;;6.22;1.88;;;8.80;83.10;;;;;;5010453;28;20521;-62
2023/03/26 08:11:14;;;;;;;7.63;1.83;;;8.80;83.30;;;;;;4995024;28;20501;-61
2023/03/26 08:14:03;;;;;;;8.13;2.08;;;8.80;83.30;;;;;;5012506;28;20469;-61
2023/03/26 08:16:40;;;;;;;5.63;1.90;;;8.80;83.40;;;;;;5012696;28;20045;-67
2023/03/26 08:19:28;;;;;;;8.18;1.60;;;8.80;83.60;;;;;;5010788;28;20128;-66
2023/03/26 08:22:11;;;;;;;5.28;1.67;;;8.80;83.70;;;;;;5015456;28;20045;-68
2023/03/26 08:24:54;;;;;;;6.30;1.70;;;8.90;83.70;;;;;;5013331;28;20048;-66
2023/03/26 08:27:37;;;;;;;6.72;2.28;;;8.80;83.10;;;;;;5010635;28;20050;-66
2023/03/26 08:30:16;;;;;;;6.18;1.90;;;8.80;83.90;;;;;;5030120;28;20049;-66
2023/03/26 08:32:54;;;;;;;4.63;2.10;;;8.80;83.00;;;;;;5013548;28;20137;-66
2023/03/26 08:35:29;;;;;;;5.20;1.58;;;8.90;83.20;;;;;;5012336;28;20128;-65
2023/03/26 08:38:03;;;;;;;5.88;1.70;;;8.90;84.10;;;;;;5012994;28;20049;-64
2023/03/26 08:41:22;;;;;;;8.30;1.98;;;8.90;84.10;;;;;;5011043;28;20048;-64
2023/03/26 08:44:16;;;;;;;7.50;2.38;;;8.90;84.10;;;;;;5008946;28;20122;-66
2023/03/26 08:47:09;;;;;;;6.75;2.10;;;8.90;84.20;;;;;;5012345;28;20059;-68
2023/03/26 08:49:57;;;;;;;7.30;2.17;;;8.90;84.40;;;;;;5012998;28;20122;-65
2023/03/26 08:52:52;;;;;;;7.38;2.10;;;8.90;84.50;;;;;;5004067;28;20112;-64
2023/03/26 08:55:51;;;;;;;8.32;2.25;;;8.90;84.40;;;;;;4990444;28;20045;-65
2023/03/26 08:59:05;;;;;;;7.93;2.28;;;8.90;84.20;;;;;;5014414;28;20049;-64
2023/03/26 09:02:36;;;;;;;9.38;3.35;;;8.90;84.40;;;;;;5028804;28;20067;-64
2023/03/26 09:05:44;;;;;;;10.23;2.70;;;8.90;84.60;;;;;;4998169;28;20063;-63
2023/03/26 09:08:50;;;;;;;10.00;2.72;;;8.90;85.10;;;;;;5020899;28;20088;-63
2023/03/26 09:12:02;;;;;;;6.15;2.13;;;8.90;85.00;;;;;;5012600;28;20516;-61
2023/03/26 09:15:33;;;;;;;6.07;2.20;;;8.90;84.80;;;;;;4979634;28;20123;-62
2023/03/26 09:18:46;;;;;;;6.57;2.20;;;8.90;85.50;;;;;;5010525;28;20060;-62
2023/03/26 09:21:49;;;;;;;6.72;1.70;;;8.90;84.50;;;;;;5013394;28;20037;-62
2023/03/26 09:24:58;;;;;;;8.27;1.88;;;8.90;84.60;;;;;;5008360;28;20053;-62
2023/03/26 09:27:45;;;;;;;7.20;2.17;;;9.00;85.80;;;;;;4999052;28;20041;-63
2023/03/26 09:30:44;;;;;;;9.35;2.67;;;8.90;85.90;;;;;;5012757;28;20044;-68
2023/03/26 09:33:55;;;;;;;7.25;2.55;;;8.90;85.50;;;;;;5009999;28;20056;-67
2023/03/26 09:36:56;;;;;;;6.63;2.13;;;8.90;86.20;;;;;;5013019;28;20048;-61
2023/03/26 09:39:44;;;;;;;9.15;2.97;;;8.90;86.20;;;;;;5011416;28;20579;-61
2023/03/26 09:42:26;;;;;;;9.30;3.22;;;8.90;86.10;;;;;;5014280;28;20053;-61
2023/03/26 09:45:38;;;;;;;10.48;3.40;;;8.90;86.30;;;;;;5033147;28;20095;-62
2023/03/26 09:48:36;;;;;;;9.23;2.83;;;8.90;85.80;;;;;;5025132;28;20132;-61
2023/03/26 09:51:23;;;;;;;8.63;2.75;;;9.00;84.30;;;;;;5033520;28;20053;-62
2023/03/26 09:54:16;;;;;;;7.20;2.75;;;9.00;84.50;;;;;;5032137;28;20078;-62
2023/03/26 09:56:57;;;;;;;6.00;2.25;;;9.00;85.40;;;;;;5014259;28;20045;-61
2023/03/26 09:59:48;;;;;;;4.68;1.80;;;9.00;85.50;;;;;;5034426;28;20044;-61
2023/03/26 10:02:49;;;;;;;5.60;1.75;;;9.00;85.50;;;;;;5015056;28;20054;-61
2023/03/26 10:05:37;;;;;;;3.28;1.10;;;9.10;85.40;;;;;;5013810;28;20079;-61
2023/03/26 10:08:37;;;;;;;4.07;1.20;;;9.10;85.40;;;;;;5015164;28;20034;-62
2023/03/26 10:11:21;;;;;;;5.95;1.02;;;9.20;85.20;;;;;;5016365;28;20104;-62
2023/03/26 10:14:04;;;;;;;6.20;1.38;;;9.20;85.40;;;;;;5011945;28;20060;-62
2023/03/26 10:16:52;;;;;;;5.45;1.10;;;9.30;85.20;;;;;;5013586;28;20060;-63
2023/03/26 10:19:41;;;;;;;5.18;1.40;;;9.40;84.90;;;;;;5013291;28;20049;-62
2023/03/26 10:22:32;;;;;;;3.45;1.27;;;9.30;84.70;;;;;;5015464;28;20047;-62
2023/03/26 10:25:23;;;;;;;5.57;1.50;;;9.40;84.10;;;;;;5013178;28;20041;-61
2023/03/26 10:28:10;;;;;;;3.85;1.15;;;9.40;84.20;;;;;;5008156;28;20106;-69
2023/03/26 10:31:04;;;;;;;5.72;1.65;;;9.30;84.40;;;;;;4996323;28;20124;-62
2023/03/26 10:33:52;;;;;;;5.72;1.20;;;9.40;83.70;;;;;;5018172;28;20041;-61
2023/03/26 10:36:30;;;;;;;4.57;1.10;;;9.30;83.90;;;;;;5017760;28;20128;-70
2023/03/26 10:39:28;;;;;;;6.20;1.30;;;9.30;83.80;;;;;;5018861;28;20049;-70
2023/03/26 10:42:19;;;;;;;4.68;1.25;;;9.20;84.40;;;;;;5038926;28;20041;-62
2023/03/26 10:45:18;;;;;;;3.75;1.08;;;9.20;84.50;;;;;;5037312;28;20117;-60
2023/03/26 10:48:12;;;;;;;4.32;1.20;;;9.20;85.10;;;;;;5037342;28;20052;-62
2023/03/26 10:50:53;;;;;;;3.00;0.90;;;9.20;85.10;;;;;;5016952;28;20511;-67
2023/03/26 10:53:34;;;;;;;4.10;1.27;;;9.20;85.40;;;;;;5017686;28;20065;-68
2023/03/26 10:56:15;;;;;;;7.07;1.75;;;9.20;85.70;;;;;;5011448;28;20054;-61
2023/03/26 10:58:49;;;;;;;3.70;1.40;;;9.30;85.00;;;;;;4996698;28;20521;-61
2023/03/26 11:01:30;;;;;;;4.85;1.70;;;9.30;84.90;;;;;;5012344;28;20409;-60
2023/03/26 11:04:19;;;;;;;5.25;2.00;;;9.40;84.80;;;;;;5014111;28;20088;-61
2023/03/26 11:07:02;;;;;;;4.97;1.65;;;9.40;85.20;;;;;;5014923;28;20092;-67
2023/03/26 11:09:43;;;;;;;5.45;1.88;;;9.40;84.80;;;;;;5011359;28;20516;-69
2023/03/26 11:12:27;;;;;;;5.47;2.00;;;9.50;84.90;;;;;;5007497;28;20048;-67
2023/03/26 11:15:12;;;;;;;6.10;1.80;;;9.60;85.30;;;;;;5013831;28;20045;-68
2023/03/26 11:17:56;;;;;;;5.57;2.17;;;9.70;84.80;;;;;;5010316;28;20497;-67
2023/03/26 11:20:37;;;;;;;5.45;2.47;;;9.70;84.50;;;;;;5013747;28;20057;-62
2023/03/26 11:23:29;;;;;;;6.47;2.15;;;9.70;84.30;;;;;;5035804;28;20060;-61
2023/03/26 11:26:14;;;;;;;5.47;2.60;;;9.70;84.10;;;;;;5037199;28;20080;-61
2023/03/26 11:29:11;;;;;;;7.32;2.72;;;9.80;84.00;;;;;;5015456;28;20041;-60
2023/03/26 11:31:55;;;;;;;7.57;3.15;;;10.00;84.30;;;;;;5019924;28;20089;-61
2023/03/26 11:34:34;;;;;;;7.55;2.65;;;10.00;83.90;;;;;;5035988;28;20389;-62
2023/03/26 11:37:16;;;;;;;6.38;2.10;;;10.00;83.70;;;;;;5035259;28;20053;-60
2023/03/26 11:39:52;;;;;;;6.15;2.40;;;10.10;83.90;;;;;;5034962;28;20045;-61
2023/03/26 11:42:26;;;;;;;7.25;2.22;;;10.10;83.60;;;;;;5036313;28;20102;-70
2023/03/26 11:44:58;;;;;;;6.35;1.95;;;10.10;83.90;;;;;;5034901;28;20045;-71
2023/03/26 11:47:40;;;;;;;6.38;1.88;;;10.20;84.00;;;;;;5009132;28;20045;-70
2023/03/26 11:50:19;;;;;;;5.93;1.73;;;10.30;83.80;;;;;;5012098;28;20144;-70
2023/03/26 11:52:57;;;;;;;3.90;1.42;;;10.40;83.70;;;;;;5013980;28;20291;-71
2023/03/26 11:55:31;;;;;;;4.18;1.30;;;10.40;83.50;;;;;;5011272;28;20068;-71
2023/03/26 11:58:16;;;;;;;6.70;1.80;;;10.40;83.80;;;;;;5015762;28;20420;-71
2023/03/26 12:00:52;;;;;;;5.05;1.48;;;10.50;83.70;;;;;;5015151;28;20148;-67
2023/03/26 12:03:33;;;;;;;6.10;1.90;;;10.60;83.50;;;;;;4997476;28;20141;-68
2023/03/26 12:06:12;;;;;;;5.00;1.40;;;10.60;83.40;;;;;;5037126;28;20133;-68
2023/03/26 12:08:46;;;;;;;2.75;1.10;;;10.60;83.20;;;;;;5015175;28;20069;-67
2023/03/26 12:11:23;;;;;;;4.72;0.95;;;10.50;82.80;;;;;;5017402;28;20038;-61
2023/03/26 12:14:01;;;;;;;3.38;0.90;;;10.50;82.80;;;;;;5016214;28;20045;-61
2023/03/26 12:16:35;;;;;;;3.03;1.00;;;10.50;82.40;;;;;;5013090;28;20448;-61
2023/03/26 12:19:19;;;;;;;3.13;1.30;;;10.40;82.60;;;;;;5033772;28;20099;-61
2023/03/26 12:21:53;;;;;;;3.92;1.05;;;10.40;82.60;;;;;;5034828;28;20052;-62
2023/03/26 12:24:29;;;;;;;4.35;1.00;;;10.30;82.90;;;;;;5033938;28;20064;-61
2023/03/26 12:27:21;;;;;;;4.82;1.20;;;10.20;83.40;;;;;;5034404;28;20092;-68
2023/03/26 12:29:59;;;;;;;5.15;1.10;;;10.20;83.40;;;;;;5034322;28;20481;-69
2023/03/26 12:32:40;;;;;;;3.42;1.60;;;10.20;83.40;;;;;;5034366;28;20095;-67
2023/03/26 12:35:18;;;;;;;3.85;1.38;;;10.20;83.60;;;;;;5030472;28;20601;-67
2023/03/26 12:37:51;;;;;;;5.65;1.30;;;10.10;83.90;;;;;;5015000;28;20042;-68
2023/03/26 12:40:32;;;;;;;3.22;1.08;;;10.20;83.40;;;;;;5015869;28;20127;-67
2023/03/26 12:43:20;;;;;;;5.88;2.33;;;10.40;83.00;;;;;;5014545;28;20081;-68
2023/03/26 12:45:57;;;;;;;7.90;2.53;;;10.50;82.60;;;;;;5015221;28;20050;-68
2023/03/26 12:48:33;;;;;;;7.13;2.35;;;10.50;82.70;;;;;;5016465;28;20054;-69
2023/03/26 12:51:17;;;;;;;7.15;2.80;;;10.60;82.60;;;;;;5033168;28;20567;-69
2023/03/26 12:54:15;;;;;;;6.85;3.47;;;10.70;82.40;;;;;;5031599;28;20044;-69
2023/03/26 12:56:58;;;;;;;9.10;3.58;;;10.90;82.10;;;;;;5024581;28;20072;-69
2023/03/26 12:59:42;;;;;;;7.40;3.08;;;11.00;82.00;;;;;;5033591;28;20144;-68
2023/03/26 13:02:42;;;;;;;6.80;3.05;;;11.00;81.90;;;;;;5014673;28;20507;-61
2023/03/26 13:05:35;;;;;;;4.93;2.10;;;11.00;82.00;;;;;;5014907;28;20049;-66
2023/03/26 13:08:36;;;;;;;5.43;2.30;;;10.90;82.20;;;;;;4992302;28;20052;-66
2023/03/26 13:11:27;;;;;;;4.85;2.10;;;11.00;82.10;;;;;;5033590;28;20041;-66
2023/03/26 13:14:12;;;;;;;4.35;1.95;;;11.00;81.90;;;;;;5031494;28;20053;-67
2023/03/26 13:16:50;;;;;;;5.20;1.42;;;11.00;82.20;;;;;;5033329;28;20048;-63
2023/03/26 13:19:33;;;;;;;4.05;1.40;;;10.90;82.30;;;;;;5033495;28;20053;-60
2023/03/26 13:22:23;;;;;;;4.93;1.60;;;10.80;82.80;;;;;;5013433;28;20129;-61
2023/03/26 13:25:05;;;;;;;5.20;1.70;;;10.70;82.90;;;;;;5014875;28;20626;-61
2023/03/26 13:27:53;;;;;;;5.03;2.30;;;10.70;83.10;;;;;;5009171;28;20071;-62
2023/03/26 13:30:36;;;;;;;6.80;2.25;;;10.60;83.30;;;;;;5031821;28;20542;-61
2023/03/26 13:33:27;;;;;;;5.90;2.00;;;10.60;82.90;;;;;;5012037;28;20046;-60
2023/03/26 13:36:05;;;;;;;5.75;2.38;;;10.50;82.70;;;;;;5010627;28;20064;-69
2023/03/26 13:38:54;;;;;;;7.97;2.90;;;10.60;82.40;;;;;;5015018;28;20045;-68
2023/03/26 13:41:37;;;;;;;6.10;2.40;;;10.60;82.20;;;;;;5007302;28;20311;-64
2023/03/26 13:44:22;;;;;;;6.13;2.20;;;10.60;82.30;;;;;;5014808;28;20045;-65
2023/03/26 13:47:00;;;;;;;5.15;1.73;;;10.70;82.20;;;;;;5008909;28;20064;-64
2023/03/26 13:49:40;;;;;;;4.18;1.63;;;10.80;81.80;;;;;;5012450;28;20038;-63
2023/03/26 13:52:21;;;;;;;4.00;1.17;;;10.90;81.60;;;;;;5008938;28;20072;-68
2023/03/26 13:55:04;;;;;;;5.15;1.73;;;11.00;81.50;;;;;;5004186;28;20446;-68
2023/03/26 13:57:42;;;;;;;4.32;1.33;;;11.10;81.40;;;;;;5006726;28;20097;-69
2023/03/26 14:00:21;;;;;;;3.33;1.30;;;11.10;81.20;;;;;;5011871;28;20057;-60
2023/03/26 14:02:59;;;;;;;3.20;1.27;;;11.20;81.20;;;;;;5012295;28;20132;-60
2023/03/26 14:05:39;;;;;;;2.55;0.85;;;11.20;81.30;;;;;;5012298;28;20071;-64
2023/03/26 14:08:19;;;;;;;2.25;0.90;;;11.20;81.40;;;;;;5016553;28;20125;-64
2023/03/26 14:10:59;;;;;;;2.47;0.77;;;11.20;81.40;;;;;;5015561;28;20120;-61
2023/03/26 14:13:36;;;;;;;13.15;7.60;;;11.20;81.30;;;;;;5015344;28;20349;-61
2023/03/26 14:16:14;;;;;;;26.23;20.00;;;11.10;81.00;;;;;;5016691;28;20045;-70
2023/03/26 14:18:57;;;;;;;22.17;17.60;;;11.10;81.20;;;;;;5015355;28;20105;-70
2023/03/26 14:21:49;;;;;;;14.23;10.93;;;11.10;81.50;;;;;;5018040;28;20603;-61
2023/03/26 14:24:36;;;;;;;10.68;9.25;;;11.20;81.50;;;;;;5009848;28;20053;-61
2023/03/26 14:27:27;;;;;;;9.95;7.80;;;11.20;81.70;;;;;;5031332;28;20045;-65